sensor_id;sensor_type;location;lat;lon;timestamp;temperature;humidity
1716;DHT22;855;48.824;9.220;2023-05-09T00:00:51;16.90;95.80
1716;DHT22;855;48.824;9.220;2023-05-09T00:03:18;16.60;95.60
1716;DHT22;855;48.824;9.220;2023-05-09T00:05:45;16.40;96.40
1716;DHT22;855;48.824;9.220;2023-05-09T00:08:13;16.20;97.00
1716;DHT22;855;48.824;9.220;2023-05-09T00:10:40;16.30;97.20
1716;DHT22;855;48.824;9.220;2023-05-09T00:13:07;16.30;96.90
1716;DHT22;855;48.824;9.220;2023-05-09T00:15:34;16.40;96.70
1716;DHT22;855;48.824;9.220;2023-05-09T00:18:00;16.40;96.60
1716;DHT22;855;48.824;9.220;2023-05-09T00:20:27;16.30;96.70
1716;DHT22;855;48.824;9.220;2023-05-09T00:22:54;16.40;96.50
1716;DHT22;855;48.824;9.220;2023-05-09T00:25:22;16.40;96.40
1716;DHT22;855;48.824;9.220;2023-05-09T00:27:49;16.20;96.20
1716;DHT22;855;48.824;9.220;2023-05-09T00:30:16;16.10;96.60
1716;DHT22;855;48.824;9.220;2023-05-09T00:32:43;15.90;97.10
1716;DHT22;855;48.824;9.220;2023-05-09T00:35:10;15.90;97.50
1716;DHT22;855;48.824;9.220;2023-05-09T00:37:36;15.90;97.30
1716;DHT22;855;48.824;9.220;2023-05-09T00:40:04;16.00;97.10
1716;DHT22;855;48.824;9.220;2023-05-09T00:42:33;16.10;96.80
1716;DHT22;855;48.824;9.220;2023-05-09T00:45:00;16.10;96.50
1716;DHT22;855;48.824;9.220;2023-05-09T00:47:27;16.10;96.50
1716;DHT22;855;48.824;9.220;2023-05-09T00:49:55;16.00;96.60
1716;DHT22;855;48.824;9.220;2023-05-09T00:52:24;16.00;96.70
1716;DHT22;855;48.824;9.220;2023-05-09T00:54:51;15.90;96.90
1716;DHT22;855;48.824;9.220;2023-05-09T00:57:18;15.90;97.10
1716;DHT22;855;48.824;9.220;2023-05-09T00:59:46;15.90;97.10
1716;DHT22;855;48.824;9.220;2023-05-09T01:02:14;15.90;97.20
1716;DHT22;855;48.824;9.220;2023-05-09T01:04:42;15.90;97.00
1716;DHT22;855;48.824;9.220;2023-05-09T01:07:12;15.70;96.90
1716;DHT22;855;48.824;9.220;2023-05-09T01:09:46;15.50;97.20
1716;DHT22;855;48.824;9.220;2023-05-09T01:12:22;15.40;97.70
1716;DHT22;855;48.824;9.220;2023-05-09T01:14:59;15.40;97.90
1716;DHT22;855;48.824;9.220;2023-05-09T01:17:38;15.50;97.70
1716;DHT22;855;48.824;9.220;2023-05-09T01:20:13;15.60;97.50
1716;DHT22;855;48.824;9.220;2023-05-09T01:22:47;15.60;97.30
1716;DHT22;855;48.824;9.220;2023-05-09T01:25:35;15.60;97.10
1716;DHT22;855;48.824;9.220;2023-05-09T01:28:11;15.70;97.10
1716;DHT22;855;48.824;9.220;2023-05-09T01:30:41;15.70;97.00
1716;DHT22;855;48.824;9.220;2023-05-09T01:33:12;15.70;97.00
1716;DHT22;855;48.824;9.220;2023-05-09T01:35:43;15.70;97.10
1716;DHT22;855;48.824;9.220;2023-05-09T01:38:17;15.60;97.00
1716;DHT22;855;48.824;9.220;2023-05-09T01:40:48;15.60;97.10
1716;DHT22;855;48.824;9.220;2023-05-09T01:43:17;15.70;97.10
1716;DHT22;855;48.824;9.220;2023-05-09T01:45:47;15.70;97.10
1716;DHT22;855;48.824;9.220;2023-05-09T01:48:14;15.80;96.90
1716;DHT22;855;48.824;9.220;2023-05-09T01:50:43;15.80;96.70
1716;DHT22;855;48.824;9.220;2023-05-09T01:53:10;15.80;96.60
1716;DHT22;855;48.824;9.220;2023-05-09T01:55:38;15.70;96.20
1716;DHT22;855;48.824;9.220;2023-05-09T01:58:07;15.60;96.50
1716;DHT22;855;48.824;9.220;2023-05-09T02:00:34;15.60;96.50
1716;DHT22;855;48.824;9.220;2023-05-09T02:03:03;15.60;96.50
1716;DHT22;855;48.824;9.220;2023-05-09T02:05:31;15.60;96.40
1716;DHT22;855;48.824;9.220;2023-05-09T02:07:59;15.60;96.30
1716;DHT22;855;48.824;9.220;2023-05-09T02:10:26;15.70;96.10
1716;DHT22;855;48.824;9.220;2023-05-09T02:12:54;15.70;96.00
1716;DHT22;855;48.824;9.220;2023-05-09T02:15:21;15.70;96.00
1716;DHT22;855;48.824;9.220;2023-05-09T02:17:48;15.70;95.90
1716;DHT22;855;48.824;9.220;2023-05-09T02:20:16;15.60;96.20
1716;DHT22;855;48.824;9.220;2023-05-09T02:22:43;15.50;96.40
1716;DHT22;855;48.824;9.220;2023-05-09T02:25:11;15.60;96.40
1716;DHT22;855;48.824;9.220;2023-05-09T02:27:40;15.60;96.40
1716;DHT22;855;48.824;9.220;2023-05-09T02:30:11;15.60;96.70
1716;DHT22;855;48.824;9.220;2023-05-09T02:32:42;15.60;96.70
1716;DHT22;855;48.824;9.220;2023-05-09T02:35:11;15.50;96.80
1716;DHT22;855;48.824;9.220;2023-05-09T02:37:40;15.60;96.90
1716;DHT22;855;48.824;9.220;2023-05-09T02:40:08;15.70;96.90
1716;DHT22;855;48.824;9.220;2023-05-09T02:42:35;15.70;96.80
1716;DHT22;855;48.824;9.220;2023-05-09T02:45:02;15.70;96.80
1716;DHT22;855;48.824;9.220;2023-05-09T02:47:29;15.60;96.80
1716;DHT22;855;48.824;9.220;2023-05-09T02:49:56;15.70;96.80
1716;DHT22;855;48.824;9.220;2023-05-09T02:52:23;15.70;96.80
1716;DHT22;855;48.824;9.220;2023-05-09T02:54:52;15.80;96.80
1716;DHT22;855;48.824;9.220;2023-05-09T02:57:18;15.80;96.60
1716;DHT22;855;48.824;9.220;2023-05-09T02:59:45;15.90;96.50
1716;DHT22;855;48.824;9.220;2023-05-09T03:02:12;15.90;96.40
1716;DHT22;855;48.824;9.220;2023-05-09T03:04:39;15.90;96.30
1716;DHT22;855;48.824;9.220;2023-05-09T03:07:06;15.90;96.00
1716;DHT22;855;48.824;9.220;2023-05-09T03:09:33;15.70;95.80
1716;DHT22;855;48.824;9.220;2023-05-09T03:12:01;15.60;96.20
1716;DHT22;855;48.824;9.220;2023-05-09T03:14:28;15.70;96.30
1716;DHT22;855;48.824;9.220;2023-05-09T03:16:55;15.60;96.00
1716;DHT22;855;48.824;9.220;2023-05-09T03:19:22;15.60;96.00
1716;DHT22;855;48.824;9.220;2023-05-09T03:21:49;15.60;95.80
1716;DHT22;855;48.824;9.220;2023-05-09T03:24:16;15.60;95.80
1716;DHT22;855;48.824;9.220;2023-05-09T03:26:43;15.60;95.60
1716;DHT22;855;48.824;9.220;2023-05-09T03:29:11;15.50;95.80
1716;DHT22;855;48.824;9.220;2023-05-09T03:31:38;15.50;95.80
1716;DHT22;855;48.824;9.220;2023-05-09T03:34:04;15.40;95.90
1716;DHT22;855;48.824;9.220;2023-05-09T03:36:32;15.40;96.00
1716;DHT22;855;48.824;9.220;2023-05-09T03:38:59;15.50;95.90
1716;DHT22;855;48.824;9.220;2023-05-09T03:41:25;15.50;95.90
1716;DHT22;855;48.824;9.220;2023-05-09T03:43:52;15.50;95.80
1716;DHT22;855;48.824;9.220;2023-05-09T03:46:20;15.50;95.70
1716;DHT22;855;48.824;9.220;2023-05-09T03:48:47;15.50;95.80
1716;DHT22;855;48.824;9.220;2023-05-09T03:51:14;15.60;95.50
1716;DHT22;855;48.824;9.220;2023-05-09T03:53:42;15.50;95.50
1716;DHT22;855;48.824;9.220;2023-05-09T03:56:09;15.60;95.50
1716;DHT22;855;48.824;9.220;2023-05-09T03:58:36;15.50;95.50
1716;DHT22;855;48.824;9.220;2023-05-09T04:01:03;15.40;95.60
1716;DHT22;855;48.824;9.220;2023-05-09T04:03:31;15.40;95.80
1716;DHT22;855;48.824;9.220;2023-05-09T04:05:58;15.50;95.80
1716;DHT22;855;48.824;9.220;2023-05-09T04:08:26;15.50;95.80
1716;DHT22;855;48.824;9.220;2023-05-09T04:10:53;15.40;95.70
1716;DHT22;855;48.824;9.220;2023-05-09T04:13:19;15.50;95.60
1716;DHT22;855;48.824;9.220;2023-05-09T04:15:46;15.50;95.50
1716;DHT22;855;48.824;9.220;2023-05-09T04:18:13;15.40;95.70
1716;DHT22;855;48.824;9.220;2023-05-09T04:20:41;15.30;96.00
1716;DHT22;855;48.824;9.220;2023-05-09T04:23:08;15.20;96.30
1716;DHT22;855;48.824;9.220;2023-05-09T04:25:35;15.20;96.30
1716;DHT22;855;48.824;9.220;2023-05-09T04:28:02;15.40;96.20
1716;DHT22;855;48.824;9.220;2023-05-09T04:30:28;15.40;96.00
1716;DHT22;855;48.824;9.220;2023-05-09T04:32:55;15.50;95.60
1716;DHT22;855;48.824;9.220;2023-05-09T04:35:22;15.50;95.40
1716;DHT22;855;48.824;9.220;2023-05-09T04:37:51;15.60;95.20
1716;DHT22;855;48.824;9.220;2023-05-09T04:40:17;15.70;95.00
1716;DHT22;855;48.824;9.220;2023-05-09T04:42:44;15.80;94.80
1716;DHT22;855;48.824;9.220;2023-05-09T04:45:11;15.90;94.70
1716;DHT22;855;48.824;9.220;2023-05-09T04:47:38;16.00;94.20
1716;DHT22;855;48.824;9.220;2023-05-09T04:50:05;16.00;94.10
1716;DHT22;855;48.824;9.220;2023-05-09T04:52:32;16.10;93.80
1716;DHT22;855;48.824;9.220;2023-05-09T04:55:01;16.20;93.80
1716;DHT22;855;48.824;9.220;2023-05-09T04:57:28;16.20;93.70
1716;DHT22;855;48.824;9.220;2023-05-09T04:59:55;16.20;93.60
1716;DHT22;855;48.824;9.220;2023-05-09T05:02:21;16.30;93.50
1716;DHT22;855;48.824;9.220;2023-05-09T05:04:49;16.40;93.50
1716;DHT22;855;48.824;9.220;2023-05-09T05:07:16;16.50;93.60
1716;DHT22;855;48.824;9.220;2023-05-09T05:09:43;16.50;93.30
1716;DHT22;855;48.824;9.220;2023-05-09T05:12:11;16.60;93.10
1716;DHT22;855;48.824;9.220;2023-05-09T05:14:38;16.60;92.70
1716;DHT22;855;48.824;9.220;2023-05-09T05:17:05;16.60;92.60
1716;DHT22;855;48.824;9.220;2023-05-09T05:19:32;16.60;92.50
1716;DHT22;855;48.824;9.220;2023-05-09T05:21:59;16.60;92.30
1716;DHT22;855;48.824;9.220;2023-05-09T05:24:26;16.50;92.40
1716;DHT22;855;48.824;9.220;2023-05-09T05:26:53;16.50;92.70
1716;DHT22;855;48.824;9.220;2023-05-09T05:29:21;16.40;93.00
1716;DHT22;855;48.824;9.220;2023-05-09T05:31:48;16.50;93.10
1716;DHT22;855;48.824;9.220;2023-05-09T05:34:15;16.70;93.50
1716;DHT22;855;48.824;9.220;2023-05-09T05:36:42;16.90;93.60
1716;DHT22;855;48.824;9.220;2023-05-09T05:39:08;17.00;93.00
1716;DHT22;855;48.824;9.220;2023-05-09T05:41:35;17.20;93.10
1716;DHT22;855;48.824;9.220;2023-05-09T05:44:02;17.40;92.40
1716;DHT22;855;48.824;9.220;2023-05-09T05:46:30;17.60;91.20
1716;DHT22;855;48.824;9.220;2023-05-09T05:48:57;17.70;91.10
1716;DHT22;855;48.824;9.220;2023-05-09T05:51:24;17.80;90.60
1716;DHT22;855;48.824;9.220;2023-05-09T05:53:51;17.90;90.10
1716;DHT22;855;48.824;9.220;2023-05-09T05:56:17;17.90;89.00
1716;DHT22;855;48.824;9.220;2023-05-09T05:58:45;18.00;88.70
1716;DHT22;855;48.824;9.220;2023-05-09T06:01:11;18.10;88.90
1716;DHT22;855;48.824;9.220;2023-05-09T06:03:40;18.20;88.70
1716;DHT22;855;48.824;9.220;2023-05-09T06:06:07;18.20;88.70
1716;DHT22;855;48.824;9.220;2023-05-09T06:08:34;18.20;88.10
1716;DHT22;855;48.824;9.220;2023-05-09T06:11:00;18.30;88.60
1716;DHT22;855;48.824;9.220;2023-05-09T06:13:27;18.30;85.80
1716;DHT22;855;48.824;9.220;2023-05-09T06:15:54;18.30;86.40
1716;DHT22;855;48.824;9.220;2023-05-09T06:18:21;18.40;85.70
1716;DHT22;855;48.824;9.220;2023-05-09T06:20:50;18.60;85.70
1716;DHT22;855;48.824;9.220;2023-05-09T06:23:16;18.80;85.20
1716;DHT22;855;48.824;9.220;2023-05-09T06:25:46;19.00;84.40
1716;DHT22;855;48.824;9.220;2023-05-09T06:28:13;19.20;83.80
1716;DHT22;855;48.824;9.220;2023-05-09T06:30:40;19.50;83.20
1716;DHT22;855;48.824;9.220;2023-05-09T06:33:07;19.60;81.60
1716;DHT22;855;48.824;9.220;2023-05-09T06:35:33;19.60;79.00
1716;DHT22;855;48.824;9.220;2023-05-09T06:38:02;19.50;79.60
1716;DHT22;855;48.824;9.220;2023-05-09T06:40:28;19.60;80.30
1716;DHT22;855;48.824;9.220;2023-05-09T06:42:55;19.70;78.00
1716;DHT22;855;48.824;9.220;2023-05-09T06:45:22;19.80;79.70
1716;DHT22;855;48.824;9.220;2023-05-09T06:47:49;19.60;77.80
1716;DHT22;855;48.824;9.220;2023-05-09T06:50:16;19.60;78.20
1716;DHT22;855;48.824;9.220;2023-05-09T06:52:43;19.60;79.30
1716;DHT22;855;48.824;9.220;2023-05-09T06:55:11;19.60;78.60
1716;DHT22;855;48.824;9.220;2023-05-09T06:57:38;19.50;78.00
1716;DHT22;855;48.824;9.220;2023-05-09T07:00:06;19.40;78.30
1716;DHT22;855;48.824;9.220;2023-05-09T07:02:33;19.20;78.60
1716;DHT22;855;48.824;9.220;2023-05-09T07:05:00;19.30;79.90
1716;DHT22;855;48.824;9.220;2023-05-09T07:07:27;19.40;80.30
1716;DHT22;855;48.824;9.220;2023-05-09T07:09:54;19.50;78.60
1716;DHT22;855;48.824;9.220;2023-05-09T07:12:22;19.70;77.90
1716;DHT22;855;48.824;9.220;2023-05-09T07:14:49;19.70;76.40
1716;DHT22;855;48.824;9.220;2023-05-09T07:17:16;19.80;76.60
1716;DHT22;855;48.824;9.220;2023-05-09T07:19:42;20.10;77.10
1716;DHT22;855;48.824;9.220;2023-05-09T07:22:09;20.40;75.60
1716;DHT22;855;48.824;9.220;2023-05-09T07:24:37;20.50;76.30
1716;DHT22;855;48.824;9.220;2023-05-09T07:27:04;20.50;75.10
1716;DHT22;855;48.824;9.220;2023-05-09T07:29:32;20.60;75.10
1716;DHT22;855;48.824;9.220;2023-05-09T07:31:59;20.60;75.10
1716;DHT22;855;48.824;9.220;2023-05-09T07:34:26;20.60;75.50
1716;DHT22;855;48.824;9.220;2023-05-09T07:36:53;20.60;73.30
1716;DHT22;855;48.824;9.220;2023-05-09T07:39:19;20.60;73.40
1716;DHT22;855;48.824;9.220;2023-05-09T07:41:46;20.50;73.40
1716;DHT22;855;48.824;9.220;2023-05-09T07:44:13;20.60;73.80
1716;DHT22;855;48.824;9.220;2023-05-09T07:46:41;20.60;73.30
1716;DHT22;855;48.824;9.220;2023-05-09T07:49:08;20.70;73.10
1716;DHT22;855;48.824;9.220;2023-05-09T07:51:35;20.70;71.80
1716;DHT22;855;48.824;9.220;2023-05-09T07:54:02;20.80;71.60
1716;DHT22;855;48.824;9.220;2023-05-09T07:56:29;20.70;70.80
1716;DHT22;855;48.824;9.220;2023-05-09T07:58:55;20.70;73.00
1716;DHT22;855;48.824;9.220;2023-05-09T08:01:22;20.80;71.00
1716;DHT22;855;48.824;9.220;2023-05-09T08:03:50;20.90;69.80
1716;DHT22;855;48.824;9.220;2023-05-09T08:06:17;21.10;71.30
1716;DHT22;855;48.824;9.220;2023-05-09T08:08:44;21.30;70.90
1716;DHT22;855;48.824;9.220;2023-05-09T08:11:11;21.40;69.80
1716;DHT22;855;48.824;9.220;2023-05-09T08:13:38;21.60;71.70
1716;DHT22;855;48.824;9.220;2023-05-09T08:16:04;21.60;67.50
1716;DHT22;855;48.824;9.220;2023-05-09T08:18:31;21.70;67.50
1716;DHT22;855;48.824;9.220;2023-05-09T08:20:59;21.80;68.40
1716;DHT22;855;48.824;9.220;2023-05-09T08:23:26;22.00;68.20
1716;DHT22;855;48.824;9.220;2023-05-09T08:25:55;22.20;68.00
1716;DHT22;855;48.824;9.220;2023-05-09T08:28:23;22.30;68.90
1716;DHT22;855;48.824;9.220;2023-05-09T08:30:53;22.20;65.20
1716;DHT22;855;48.824;9.220;2023-05-09T08:33:20;22.20;66.30
1716;DHT22;855;48.824;9.220;2023-05-09T08:35:49;22.20;67.10
1716;DHT22;855;48.824;9.220;2023-05-09T08:38:18;22.30;67.70
1716;DHT22;855;48.824;9.220;2023-05-09T08:40:45;22.40;67.20
1716;DHT22;855;48.824;9.220;2023-05-09T08:43:12;22.40;65.10
1716;DHT22;855;48.824;9.220;2023-05-09T08:45:46;22.50;65.20
1716;DHT22;855;48.824;9.220;2023-05-09T08:48:14;22.40;65.50
1716;DHT22;855;48.824;9.220;2023-05-09T08:50:42;22.50;65.10
1716;DHT22;855;48.824;9.220;2023-05-09T08:53:09;22.60;67.30
1716;DHT22;855;48.824;9.220;2023-05-09T08:55:38;22.60;66.70
1716;DHT22;855;48.824;9.220;2023-05-09T08:58:05;22.90;66.40
1716;DHT22;855;48.824;9.220;2023-05-09T09:00:32;23.00;67.10
1716;DHT22;855;48.824;9.220;2023-05-09T09:03:00;23.00;68.10
1716;DHT22;855;48.824;9.220;2023-05-09T09:05:29;23.20;66.30
1716;DHT22;855;48.824;9.220;2023-05-09T09:07:56;23.30;64.50
1716;DHT22;855;48.824;9.220;2023-05-09T09:10:25;23.40;63.00
1716;DHT22;855;48.824;9.220;2023-05-09T09:12:57;23.40;64.50
1716;DHT22;855;48.824;9.220;2023-05-09T09:15:27;23.50;65.90
1716;DHT22;855;48.824;9.220;2023-05-09T09:17:54;23.50;66.10
1716;DHT22;855;48.824;9.220;2023-05-09T09:20:26;23.60;63.40
1716;DHT22;855;48.824;9.220;2023-05-09T09:22:58;23.50;62.70
1716;DHT22;855;48.824;9.220;2023-05-09T09:25:26;23.40;63.40
1716;DHT22;855;48.824;9.220;2023-05-09T09:27:54;23.40;64.70
1716;DHT22;855;48.824;9.220;2023-05-09T09:30:23;23.50;63.00
1716;DHT22;855;48.824;9.220;2023-05-09T09:32:51;23.50;64.20
1716;DHT22;855;48.824;9.220;2023-05-09T09:35:17;23.70;64.20
1716;DHT22;855;48.824;9.220;2023-05-09T09:37:44;23.70;63.90
1716;DHT22;855;48.824;9.220;2023-05-09T09:40:11;23.60;63.20
1716;DHT22;855;48.824;9.220;2023-05-09T09:42:42;23.60;62.80
1716;DHT22;855;48.824;9.220;2023-05-09T09:45:12;23.60;64.90
1716;DHT22;855;48.824;9.220;2023-05-09T09:47:39;23.60;61.80
1716;DHT22;855;48.824;9.220;2023-05-09T09:50:12;23.60;63.10
1716;DHT22;855;48.824;9.220;2023-05-09T09:52:43;23.70;64.50
1716;DHT22;855;48.824;9.220;2023-05-09T09:55:10;23.80;63.40
1716;DHT22;855;48.824;9.220;2023-05-09T09:57:38;23.80;61.50
1716;DHT22;855;48.824;9.220;2023-05-09T10:00:11;23.90;60.20
1716;DHT22;855;48.824;9.220;2023-05-09T10:02:48;23.80;61.60
1716;DHT22;855;48.824;9.220;2023-05-09T10:05:22;24.00;62.20
1716;DHT22;855;48.824;9.220;2023-05-09T10:07:50;24.10;61.10
1716;DHT22;855;48.824;9.220;2023-05-09T10:10:19;24.40;60.70
1716;DHT22;855;48.824;9.220;2023-05-09T10:12:47;24.70;61.20
1716;DHT22;855;48.824;9.220;2023-05-09T10:15:17;24.60;60.60
1716;DHT22;855;48.824;9.220;2023-05-09T10:17:46;24.70;61.00
1716;DHT22;855;48.824;9.220;2023-05-09T10:20:15;24.60;60.00
1716;DHT22;855;48.824;9.220;2023-05-09T10:22:43;24.50;59.20
1716;DHT22;855;48.824;9.220;2023-05-09T10:25:15;24.40;59.50
1716;DHT22;855;48.824;9.220;2023-05-09T10:27:44;24.40;62.30
1716;DHT22;855;48.824;9.220;2023-05-09T10:30:17;24.50;60.20
1716;DHT22;855;48.824;9.220;2023-05-09T10:32:51;24.50;59.70
1716;DHT22;855;48.824;9.220;2023-05-09T10:35:19;24.60;60.70
1716;DHT22;855;48.824;9.220;2023-05-09T10:37:47;24.90;59.70
1716;DHT22;855;48.824;9.220;2023-05-09T10:40:14;24.80;60.10
1716;DHT22;855;48.824;9.220;2023-05-09T10:42:42;24.70;62.40
1716;DHT22;855;48.824;9.220;2023-05-09T10:45:10;24.90;59.70
1716;DHT22;855;48.824;9.220;2023-05-09T10:47:39;25.00;61.90
1716;DHT22;855;48.824;9.220;2023-05-09T10:50:06;25.10;60.10
1716;DHT22;855;48.824;9.220;2023-05-09T10:52:34;25.50;58.50
1716;DHT22;855;48.824;9.220;2023-05-09T10:55:21;25.40;56.50
1716;DHT22;855;48.824;9.220;2023-05-09T10:57:52;25.30;58.80
1716;DHT22;855;48.824;9.220;2023-05-09T11:00:23;25.20;58.00
1716;DHT22;855;48.824;9.220;2023-05-09T11:03:07;24.70;58.90
1716;DHT22;855;48.824;9.220;2023-05-09T11:05:38;24.80;60.40
1716;DHT22;855;48.824;9.220;2023-05-09T11:08:18;24.90;59.70
1716;DHT22;855;48.824;9.220;2023-05-09T11:10:46;25.10;59.40
1716;DHT22;855;48.824;9.220;2023-05-09T11:13:17;25.10;57.90
1716;DHT22;855;48.824;9.220;2023-05-09T11:15:50;24.90;58.30
1716;DHT22;855;48.824;9.220;2023-05-09T11:18:18;25.00;60.40
1716;DHT22;855;48.824;9.220;2023-05-09T11:20:48;25.10;59.90
1716;DHT22;855;48.824;9.220;2023-05-09T11:23:17;25.30;58.70
1716;DHT22;855;48.824;9.220;2023-05-09T11:25:45;25.50;58.80
1716;DHT22;855;48.824;9.220;2023-05-09T11:28:24;25.50;57.30
1716;DHT22;855;48.824;9.220;2023-05-09T11:30:52;25.50;56.30
1716;DHT22;855;48.824;9.220;2023-05-09T11:33:26;25.60;59.20
1716;DHT22;855;48.824;9.220;2023-05-09T11:36:16;25.40;57.40
1716;DHT22;855;48.824;9.220;2023-05-09T11:38:43;25.40;58.00
1716;DHT22;855;48.824;9.220;2023-05-09T11:41:10;25.50;59.20
1716;DHT22;855;48.824;9.220;2023-05-09T11:43:38;25.30;58.90
1716;DHT22;855;48.824;9.220;2023-05-09T11:46:05;25.20;59.50
1716;DHT22;855;48.824;9.220;2023-05-09T11:48:38;25.40;57.90
1716;DHT22;855;48.824;9.220;2023-05-09T11:51:05;25.60;58.70
1716;DHT22;855;48.824;9.220;2023-05-09T11:53:32;25.60;57.70
1716;DHT22;855;48.824;9.220;2023-05-09T11:56:02;25.90;57.30
1716;DHT22;855;48.824;9.220;2023-05-09T11:58:29;26.00;58.00
1716;DHT22;855;48.824;9.220;2023-05-09T12:00:56;26.10;56.90
1716;DHT22;855;48.824;9.220;2023-05-09T12:03:23;25.90;55.90
1716;DHT22;855;48.824;9.220;2023-05-09T12:05:53;25.70;57.70
1716;DHT22;855;48.824;9.220;2023-05-09T12:08:20;25.70;57.80
1716;DHT22;855;48.824;9.220;2023-05-09T12:10:47;25.80;58.70
1716;DHT22;855;48.824;9.220;2023-05-09T12:13:14;25.80;61.00
1716;DHT22;855;48.824;9.220;2023-05-09T12:15:41;25.70;57.70
1716;DHT22;855;48.824;9.220;2023-05-09T12:18:08;25.80;58.40
1716;DHT22;855;48.824;9.220;2023-05-09T12:20:42;25.80;57.80
1716;DHT22;855;48.824;9.220;2023-05-09T12:23:11;26.10;58.90
1716;DHT22;855;48.824;9.220;2023-05-09T12:25:38;26.30;57.00
1716;DHT22;855;48.824;9.220;2023-05-09T12:28:05;26.10;55.80
1716;DHT22;855;48.824;9.220;2023-05-09T12:30:33;26.10;57.40
1716;DHT22;855;48.824;9.220;2023-05-09T12:33:00;26.20;56.80
1716;DHT22;855;48.824;9.220;2023-05-09T12:35:27;25.90;57.80
1716;DHT22;855;48.824;9.220;2023-05-09T12:37:54;26.10;58.20
1716;DHT22;855;48.824;9.220;2023-05-09T12:40:24;26.30;59.20
1716;DHT22;855;48.824;9.220;2023-05-09T12:42:50;26.10;59.30
1716;DHT22;855;48.824;9.220;2023-05-09T12:45:22;26.00;57.40
1716;DHT22;855;48.824;9.220;2023-05-09T12:47:50;25.60;58.40
1716;DHT22;855;48.824;9.220;2023-05-09T12:50:17;25.40;58.30
1716;DHT22;855;48.824;9.220;2023-05-09T12:52:49;25.30;58.90
1716;DHT22;855;48.824;9.220;2023-05-09T12:55:19;25.40;60.20
1716;DHT22;855;48.824;9.220;2023-05-09T12:57:58;25.50;59.90
1716;DHT22;855;48.824;9.220;2023-05-09T13:00:25;25.70;58.30
1716;DHT22;855;48.824;9.220;2023-05-09T13:02:52;25.80;58.70
1716;DHT22;855;48.824;9.220;2023-05-09T13:05:20;25.90;57.20
1716;DHT22;855;48.824;9.220;2023-05-09T13:07:48;25.90;57.50
1716;DHT22;855;48.824;9.220;2023-05-09T13:10:18;25.90;57.00
1716;DHT22;855;48.824;9.220;2023-05-09T13:12:46;25.30;56.70
1716;DHT22;855;48.824;9.220;2023-05-09T13:15:16;25.40;57.90
1716;DHT22;855;48.824;9.220;2023-05-09T13:17:45;25.50;56.80
1716;DHT22;855;48.824;9.220;2023-05-09T13:20:11;25.60;56.90
1716;DHT22;855;48.824;9.220;2023-05-09T13:22:38;25.70;56.20
1716;DHT22;855;48.824;9.220;2023-05-09T13:25:06;25.60;56.20
1716;DHT22;855;48.824;9.220;2023-05-09T13:27:33;25.30;57.30
1716;DHT22;855;48.824;9.220;2023-05-09T13:30:00;25.60;56.90
1716;DHT22;855;48.824;9.220;2023-05-09T13:32:29;25.90;56.30
1716;DHT22;855;48.824;9.220;2023-05-09T13:34:56;25.80;57.00
1716;DHT22;855;48.824;9.220;2023-05-09T13:37:23;25.90;55.70
1716;DHT22;855;48.824;9.220;2023-05-09T13:39:51;25.90;56.90
1716;DHT22;855;48.824;9.220;2023-05-09T13:42:19;25.60;55.00
1716;DHT22;855;48.824;9.220;2023-05-09T13:44:45;25.50;54.70
1716;DHT22;855;48.824;9.220;2023-05-09T13:47:12;25.00;55.40
1716;DHT22;855;48.824;9.220;2023-05-09T13:49:40;25.00;54.50
1716;DHT22;855;48.824;9.220;2023-05-09T13:52:07;24.90;54.70
1716;DHT22;855;48.824;9.220;2023-05-09T13:54:34;24.90;54.90
1716;DHT22;855;48.824;9.220;2023-05-09T13:57:02;24.90;55.30
1716;DHT22;855;48.824;9.220;2023-05-09T13:59:29;24.90;54.70
1716;DHT22;855;48.824;9.220;2023-05-09T14:01:56;25.00;55.00
1716;DHT22;855;48.824;9.220;2023-05-09T14:04:24;25.00;56.20
1716;DHT22;855;48.824;9.220;2023-05-09T14:06:52;24.90;55.50
1716;DHT22;855;48.824;9.220;2023-05-09T14:09:19;25.00;55.00
1716;DHT22;855;48.824;9.220;2023-05-09T14:11:47;25.20;55.50
1716;DHT22;855;48.824;9.220;2023-05-09T14:14:15;25.40;54.40
1716;DHT22;855;48.824;9.220;2023-05-09T14:16:42;25.10;53.70
1716;DHT22;855;48.824;9.220;2023-05-09T14:19:08;25.20;54.20
1716;DHT22;855;48.824;9.220;2023-05-09T14:21:35;25.40;55.80
1716;DHT22;855;48.824;9.220;2023-05-09T14:24:04;25.50;54.30
1716;DHT22;855;48.824;9.220;2023-05-09T14:26:32;25.40;56.50
1716;DHT22;855;48.824;9.220;2023-05-09T14:28:59;25.50;55.50
1716;DHT22;855;48.824;9.220;2023-05-09T14:31:26;25.50;55.80
1716;DHT22;855;48.824;9.220;2023-05-09T14:33:54;25.50;55.80
1716;DHT22;855;48.824;9.220;2023-05-09T14:36:21;25.60;53.60
1716;DHT22;855;48.824;9.220;2023-05-09T14:38:48;25.60;54.20
1716;DHT22;855;48.824;9.220;2023-05-09T14:41:16;25.60;56.00
1716;DHT22;855;48.824;9.220;2023-05-09T14:43:43;25.50;55.50
1716;DHT22;855;48.824;9.220;2023-05-09T14:46:10;25.40;56.40
1716;DHT22;855;48.824;9.220;2023-05-09T14:48:37;25.30;56.80
1716;DHT22;855;48.824;9.220;2023-05-09T14:51:04;25.00;57.90
1716;DHT22;855;48.824;9.220;2023-05-09T14:53:30;24.80;60.10
1716;DHT22;855;48.824;9.220;2023-05-09T14:55:59;24.70;60.20
1716;DHT22;855;48.824;9.220;2023-05-09T14:58:28;24.60;59.40
1716;DHT22;855;48.824;9.220;2023-05-09T15:00:58;24.30;59.20
1716;DHT22;855;48.824;9.220;2023-05-09T15:03:25;23.80;62.00
1716;DHT22;855;48.824;9.220;2023-05-09T15:05:52;23.50;64.00
1716;DHT22;855;48.824;9.220;2023-05-09T15:08:19;23.30;63.20
1716;DHT22;855;48.824;9.220;2023-05-09T15:10:46;23.20;64.40
1716;DHT22;855;48.824;9.220;2023-05-09T15:13:15;23.30;63.90
1716;DHT22;855;48.824;9.220;2023-05-09T15:15:43;23.20;64.40
1716;DHT22;855;48.824;9.220;2023-05-09T15:18:10;23.30;63.80
1716;DHT22;855;48.824;9.220;2023-05-09T15:20:38;23.30;63.40
1716;DHT22;855;48.824;9.220;2023-05-09T15:23:05;23.40;63.20
1716;DHT22;855;48.824;9.220;2023-05-09T15:25:32;23.50;62.00
1716;DHT22;855;48.824;9.220;2023-05-09T15:27:59;23.60;59.70
1716;DHT22;855;48.824;9.220;2023-05-09T15:30:26;23.60;60.70
1716;DHT22;855;48.824;9.220;2023-05-09T15:32:54;23.60;60.40
1716;DHT22;855;48.824;9.220;2023-05-09T15:35:21;23.60;59.50
1716;DHT22;855;48.824;9.220;2023-05-09T15:37:48;23.80;59.70
1716;DHT22;855;48.824;9.220;2023-05-09T15:40:15;24.00;59.50
1716;DHT22;855;48.824;9.220;2023-05-09T15:42:42;23.90;56.70
1716;DHT22;855;48.824;9.220;2023-05-09T15:45:09;24.00;56.80
1716;DHT22;855;48.824;9.220;2023-05-09T15:47:36;24.00;56.00
1716;DHT22;855;48.824;9.220;2023-05-09T15:50:05;24.00;57.30
1716;DHT22;855;48.824;9.220;2023-05-09T15:52:32;24.10;58.70
1716;DHT22;855;48.824;9.220;2023-05-09T15:54:59;24.20;58.40
1716;DHT22;855;48.824;9.220;2023-05-09T15:57:26;24.30;58.20
1716;DHT22;855;48.824;9.220;2023-05-09T15:59:53;24.30;58.70
1716;DHT22;855;48.824;9.220;2023-05-09T16:02:20;24.30;58.20
1716;DHT22;855;48.824;9.220;2023-05-09T16:04:48;24.30;57.80
1716;DHT22;855;48.824;9.220;2023-05-09T16:07:16;24.20;57.00
1716;DHT22;855;48.824;9.220;2023-05-09T16:09:44;24.10;57.80
1716;DHT22;855;48.824;9.220;2023-05-09T16:12:11;23.80;60.60
1716;DHT22;855;48.824;9.220;2023-05-09T16:14:39;23.50;63.20
1716;DHT22;855;48.824;9.220;2023-05-09T16:17:06;23.00;69.30
1716;DHT22;855;48.824;9.220;2023-05-09T16:19:32;22.60;72.70
1716;DHT22;855;48.824;9.220;2023-05-09T16:22:00;22.50;73.50